createdAt,value
2023-02-14T00:02:25.015Z,3.28
2023-02-14T00:05:09.817Z,3.27
2023-02-14T00:07:55.028Z,3.20
2023-02-14T00:10:39.843Z,3.16
2023-02-14T00:13:25.035Z,3.17
2023-02-14T00:16:10.008Z,3.14
2023-02-14T00:19:04.221Z,3.18
2023-02-14T00:21:49.890Z,3.11
2023-02-14T00:24:35.002Z,3.12
2023-02-14T00:27:19.948Z,3.08
2023-02-14T00:30:06.810Z,3.10
2023-02-14T00:32:51.725Z,3.04
2023-02-14T00:35:38.542Z,3.02
2023-02-14T00:38:23.466Z,2.98
2023-02-14T00:41:08.442Z,2.99
2023-02-14T00:43:55.097Z,2.97
2023-02-14T00:46:40.643Z,3.01
2023-02-14T00:49:25.857Z,2.98
2023-02-14T00:52:10.669Z,2.99
2023-02-14T00:54:56.150Z,2.96
2023-02-14T00:57:41.285Z,2.90
2023-02-14T01:00:26.449Z,2.93
2023-02-14T01:03:11.321Z,2.97
2023-02-14T01:05:56.584Z,2.88
2023-02-14T01:08:41.706Z,2.81
2023-02-14T01:11:29.307Z,2.77
2023-02-14T01:14:15.615Z,2.74
2023-02-14T01:17:00.590Z,2.74
2023-02-14T01:19:45.747Z,2.72
2023-02-14T01:22:35.728Z,2.64
2023-02-14T01:25:20.621Z,2.41
2023-02-14T01:28:06.799Z,2.32
2023-02-14T01:30:51.878Z,2.18
2023-02-14T01:33:37.802Z,2.06
2023-02-14T01:36:36.211Z,2.10
2023-02-14T01:39:21.136Z,2.12
2023-02-14T01:42:06.088Z,2.21
2023-02-14T01:44:55.730Z,2.26
2023-02-14T01:47:44.004Z,2.39
2023-02-14T01:50:36.125Z,2.49
2023-02-14T01:53:28.715Z,2.78
2023-02-14T01:56:19.681Z,2.89
2023-02-14T01:59:09.642Z,2.75
2023-02-14T02:01:55.233Z,2.75
2023-02-14T02:04:44.696Z,2.77
2023-02-14T02:07:29.925Z,2.78
2023-02-14T02:10:14.866Z,2.79
2023-02-14T02:13:05.757Z,2.70
2023-02-14T02:15:56.521Z,2.59
2023-02-14T02:19:01.946Z,2.55
2023-02-14T02:22:18.378Z,2.52
2023-02-14T02:25:15.774Z,2.50
2023-02-14T02:28:03.757Z,2.42
2023-02-14T02:31:22.522Z,2.32
2023-02-14T02:34:27.661Z,2.25
2023-02-14T02:37:57.553Z,2.23
2023-02-14T02:40:54.162Z,2.20
2023-02-14T02:44:09.118Z,2.15
2023-02-14T02:47:28.692Z,2.12
2023-02-14T02:50:39.297Z,2.11
2023-02-14T02:53:29.154Z,2.04
2023-02-14T02:56:43.860Z,2.02
2023-02-14T02:59:36.993Z,2.13
2023-02-14T03:02:30.499Z,2.06
2023-02-14T03:05:15.539Z,1.94
2023-02-14T03:08:00.696Z,1.94
2023-02-14T03:10:45.516Z,2.05
2023-02-14T03:14:06.308Z,2.00
2023-02-14T03:17:04.766Z,1.95
2023-02-14T03:20:15.079Z,1.91
2023-02-14T03:23:29.727Z,1.86
2023-02-14T03:26:18.499Z,1.87
2023-02-14T03:29:27.602Z,1.83
2023-02-14T03:32:27.238Z,1.91
2023-02-14T03:35:20.889Z,1.81
2023-02-14T03:38:19.897Z,1.82
2023-02-14T03:41:10.256Z,1.74
2023-02-14T03:44:02.791Z,1.75
2023-02-14T03:46:55.896Z,1.71
2023-02-14T03:49:46.839Z,1.68
2023-02-14T03:52:34.379Z,1.67
2023-02-14T03:55:31.738Z,1.61
2023-02-14T03:58:24.401Z,1.63
2023-02-14T04:01:27.995Z,1.66
2023-02-14T04:04:17.784Z,1.63
2023-02-14T04:07:23.140Z,1.57
2023-02-14T04:10:08.399Z,1.51
2023-02-14T04:12:54.099Z,1.48
2023-02-14T04:15:39.007Z,1.44
2023-02-14T04:18:42.868Z,1.43
2023-02-14T04:21:27.894Z,1.45
2023-02-14T04:24:12.578Z,1.41
2023-02-14T04:27:09.921Z,1.41
2023-02-14T04:29:55.149Z,1.32
2023-02-14T04:32:41.402Z,1.26
2023-02-14T04:35:26.494Z,1.36
2023-02-14T04:38:11.491Z,1.30
2023-02-14T04:40:56.319Z,1.21
2023-02-14T04:43:41.170Z,1.21
2023-02-14T04:46:26.345Z,1.26
2023-02-14T04:49:11.181Z,1.23
2023-02-14T04:51:57.234Z,1.23
2023-02-14T04:54:42.414Z,1.18
2023-02-14T04:57:27.357Z,1.13
2023-02-14T05:00:12.845Z,1.11
2023-02-14T05:02:57.526Z,1.07
2023-02-14T05:05:42.274Z,1.05
2023-02-14T05:08:27.498Z,1.13
2023-02-14T05:11:12.421Z,1.22
2023-02-14T05:13:57.553Z,1.21
2023-02-14T05:16:42.330Z,1.19
2023-02-14T05:19:27.282Z,1.12
2023-02-14T05:22:12.046Z,1.03
2023-02-14T05:24:57.281Z,1.02
2023-02-14T05:27:42.288Z,0.93
2023-02-14T05:30:28.885Z,0.91
2023-02-14T05:33:14.011Z,0.93
2023-02-14T05:36:00.877Z,0.96
2023-02-14T05:38:47.019Z,0.96
2023-02-14T05:41:32.185Z,0.87
2023-02-14T05:44:17.051Z,0.89
2023-02-14T05:47:01.998Z,0.91
2023-02-14T05:49:46.774Z,0.93
2023-02-14T05:52:31.841Z,0.97
2023-02-14T05:55:16.993Z,0.99
2023-02-14T05:58:02.224Z,1.02
2023-02-14T06:00:47.028Z,0.97
2023-02-14T06:03:32.190Z,0.92
2023-02-14T06:06:17.240Z,0.91
2023-02-14T06:09:02.726Z,0.94
2023-02-14T06:11:47.947Z,0.96
2023-02-14T06:14:32.905Z,0.91
2023-02-14T06:17:17.638Z,0.97
2023-02-14T06:20:03.885Z,0.97
2023-02-14T06:22:48.920Z,0.88
2023-02-14T06:25:34.759Z,0.91
2023-02-14T06:28:20.062Z,0.89
2023-02-14T06:31:05.332Z,0.82
2023-02-14T06:33:50.383Z,0.81
2023-02-14T06:36:35.607Z,0.83
2023-02-14T06:39:20.630Z,0.76
2023-02-14T06:42:05.783Z,0.87
2023-02-14T06:44:50.636Z,0.92
2023-02-14T06:47:35.712Z,0.99
2023-02-14T06:50:20.730Z,1.00
2023-02-14T06:53:06.187Z,1.07
2023-02-14T06:55:51.422Z,1.13
2023-02-14T06:58:36.463Z,1.17
2023-02-14T07:01:21.527Z,1.19
2023-02-14T07:04:06.297Z,1.15
2023-02-14T07:06:51.515Z,1.17
2023-02-14T07:09:36.373Z,1.16
2023-02-14T07:12:21.536Z,1.16
2023-02-14T07:15:11.128Z,1.23
2023-02-14T07:17:56.241Z,1.29
2023-02-14T07:20:41.010Z,1.31
2023-02-14T07:23:26.122Z,1.35
2023-02-14T07:26:11.221Z,1.38
2023-02-14T07:28:56.246Z,1.36
2023-02-14T07:31:41.186Z,1.47
2023-02-14T07:34:27.226Z,1.51
2023-02-14T07:37:11.980Z,1.61
2023-02-14T07:39:57.063Z,1.74
2023-02-14T07:42:43.311Z,1.95
2023-02-14T07:45:28.592Z,1.82
2023-02-14T07:48:13.608Z,1.89
2023-02-14T07:50:59.378Z,1.99
2023-02-14T07:53:44.659Z,2.09
2023-02-14T07:56:29.662Z,2.12
2023-02-14T07:59:14.573Z,2.35
2023-02-14T08:01:59.925Z,2.35
2023-02-14T08:04:44.728Z,2.44
2023-02-14T08:07:29.981Z,2.65
2023-02-14T08:10:15.157Z,2.77
2023-02-14T08:13:00.401Z,2.76
2023-02-14T08:16:04.141Z,2.91
2023-02-14T08:18:49.250Z,3.05
2023-02-14T08:21:34.361Z,3.19
2023-02-14T08:24:19.433Z,3.25
2023-02-14T08:27:04.658Z,3.38
2023-02-14T08:29:49.416Z,3.51
2023-02-14T08:32:34.781Z,3.60
2023-02-14T08:35:20.008Z,3.68
2023-02-14T08:38:05.432Z,3.78
2023-02-14T08:40:50.943Z,3.84
2023-02-14T08:43:36.151Z,4.09
2023-02-14T08:46:21.503Z,4.08
2023-02-14T08:49:06.703Z,4.17
2023-02-14T08:51:51.890Z,4.22
2023-02-14T08:54:37.094Z,4.29
2023-02-14T08:57:21.981Z,4.41
2023-02-14T09:00:08.350Z,4.51
2023-02-14T09:02:53.800Z,4.57
2023-02-14T09:05:39.015Z,4.72
2023-02-14T09:08:23.874Z,4.79
2023-02-14T09:11:14.053Z,4.87
2023-02-14T09:13:59.105Z,4.81
2023-02-14T09:16:44.439Z,4.93
2023-02-14T09:19:29.393Z,5.03
2023-02-14T09:22:14.365Z,5.28
2023-02-14T09:24:59.998Z,5.43
2023-02-14T09:27:44.888Z,5.38
2023-02-14T09:30:30.047Z,5.43
2023-02-14T09:33:14.869Z,5.57
2023-02-14T09:36:18.619Z,5.55
2023-02-14T09:39:04.041Z,5.74
2023-02-14T09:42:06.047Z,5.77
2023-02-14T09:45:00.314Z,7.85
2023-02-14T09:47:45.280Z,8.24
2023-02-14T09:50:52.972Z,9.26
2023-02-14T09:53:52.638Z,9.13
2023-02-14T09:56:51.357Z,10.50
2023-02-14T09:59:49.455Z,10.00
2023-02-14T10:02:40.633Z,8.78
2023-02-14T10:05:47.413Z,10.68
2023-02-14T10:08:54.167Z,9.22
2023-02-14T10:11:43.245Z,8.93
2023-02-14T10:14:40.205Z,9.42
2023-02-14T10:17:30.886Z,11.06
2023-02-14T10:20:41.438Z,11.65
2023-02-14T10:23:41.041Z,12.33
2023-02-14T10:26:39.831Z,10.90
2023-02-14T10:29:25.223Z,12.12
2023-02-14T10:32:14.790Z,11.84
2023-02-14T10:35:05.510Z,10.36
2023-02-14T10:38:05.167Z,10.83
2023-02-14T10:41:21.001Z,9.73
2023-02-14T10:44:19.686Z,9.78
2023-02-14T10:47:26.202Z,9.64
2023-02-14T10:50:20.684Z,10.15
2023-02-14T10:53:41.657Z,10.67
2023-02-14T10:56:34.507Z,10.52
2023-02-14T10:59:27.596Z,9.23
2023-02-14T11:02:15.938Z,9.92
2023-02-14T11:05:03.485Z,10.91
2023-02-14T11:07:49.253Z,9.58
2023-02-14T11:10:35.575Z,9.79
2023-02-14T11:13:35.739Z,10.58
2023-02-14T11:16:31.411Z,10.70
2023-02-14T11:19:16.170Z,10.31
2023-02-14T11:22:02.648Z,12.39
2023-02-14T11:24:48.296Z,13.04
2023-02-14T11:27:33.589Z,13.03
2023-02-14T11:30:31.288Z,13.57
2023-02-14T11:33:42.417Z,13.37
2023-02-14T11:36:30.393Z,12.56
2023-02-14T11:39:34.555Z,10.87
2023-02-14T11:42:34.193Z,10.92
2023-02-14T11:45:35.644Z,10.74
2023-02-14T11:48:37.739Z,10.84
2023-02-14T11:51:47.849Z,10.40
2023-02-14T11:54:39.153Z,12.86
2023-02-14T11:57:28.868Z,11.64
2023-02-14T12:00:17.365Z,11.67
2023-02-14T12:03:05.612Z,11.30
2023-02-14T12:05:53.843Z,13.24
2023-02-14T12:08:41.805Z,11.53
2023-02-14T12:11:28.868Z,10.68
2023-02-14T12:14:22.470Z,11.10
2023-02-14T12:17:31.544Z,11.00
2023-02-14T12:20:35.482Z,10.88
2023-02-14T12:23:42.313Z,10.43
2023-02-14T12:26:38.833Z,10.22
2023-02-14T12:29:33.066Z,10.65
2023-02-14T12:32:24.749Z,10.36
2023-02-14T12:35:17.652Z,10.08
2023-02-14T12:38:21.051Z,10.07
2023-02-14T12:41:34.651Z,10.50
2023-02-14T12:44:32.382Z,9.85
2023-02-14T12:47:24.778Z,10.01
2023-02-14T12:50:23.430Z,10.22
2023-02-14T12:53:39.036Z,10.62
2023-02-14T12:56:45.746Z,10.37
2023-02-14T12:59:38.497Z,10.44
2023-02-14T13:02:56.849Z,10.56
2023-02-14T13:05:54.718Z,10.30
2023-02-14T13:09:01.241Z,10.64
2023-02-14T13:12:11.801Z,10.35
2023-02-14T13:15:03.270Z,10.31
2023-02-14T13:17:58.707Z,10.30
2023-02-14T13:20:59.240Z,10.52
2023-02-14T13:23:52.772Z,11.07
2023-02-14T13:26:41.752Z,10.79
2023-02-14T13:29:33.107Z,10.48
2023-02-14T13:32:22.599Z,10.83
2023-02-14T13:35:08.319Z,10.90
2023-02-14T13:37:57.629Z,10.60
2023-02-14T13:40:42.964Z,10.67
2023-02-14T13:43:49.547Z,10.57
2023-02-14T13:46:34.479Z,10.76
2023-02-14T13:49:31.784Z,10.65
2023-02-14T13:52:43.816Z,10.77
2023-02-14T13:55:35.393Z,10.91
2023-02-14T13:58:24.072Z,10.85
2023-02-14T14:01:32.788Z,11.65
2023-02-14T14:04:27.862Z,11.51
2023-02-14T14:07:13.366Z,11.14
2023-02-14T14:10:01.562Z,11.60
2023-02-14T14:12:46.401Z,11.27
2023-02-14T14:15:31.202Z,11.00
2023-02-14T14:18:15.955Z,11.38
2023-02-14T14:21:14.060Z,11.17
2023-02-14T14:24:20.803Z,11.43
2023-02-14T14:27:17.483Z,11.11
2023-02-14T14:30:17.707Z,11.19
2023-02-14T14:33:14.417Z,11.35
2023-02-14T14:36:04.039Z,11.27
2023-02-14T14:38:53.457Z,11.36
2023-02-14T14:41:40.398Z,11.29
2023-02-14T14:44:25.577Z,11.29
2023-02-14T14:47:17.549Z,11.19
2023-02-14T14:50:13.309Z,11.27
2023-02-14T14:53:09.336Z,11.36
2023-02-14T14:55:55.517Z,11.30
2023-02-14T14:58:41.697Z,11.14
2023-02-14T15:01:36.825Z,11.25
2023-02-14T15:04:29.366Z,11.16
2023-02-14T15:07:20.791Z,11.07
2023-02-14T15:10:22.026Z,11.10
2023-02-14T15:13:31.231Z,11.12
2023-02-14T15:16:23.193Z,11.22
2023-02-14T15:19:12.567Z,11.06
2023-02-14T15:21:57.509Z,11.16
2023-02-14T15:24:42.619Z,11.02
2023-02-14T15:27:28.367Z,10.92
2023-02-14T15:30:22.003Z,10.87
2023-02-14T15:33:07.755Z,10.85
2023-02-14T15:35:53.284Z,10.82
2023-02-14T15:38:41.602Z,10.85
2023-02-14T15:41:27.180Z,10.79
2023-02-14T15:44:19.899Z,10.69
2023-02-14T15:47:05.803Z,10.59
2023-02-14T15:49:50.662Z,10.50
2023-02-14T15:52:40.496Z,10.46
2023-02-14T15:55:26.850Z,10.41
2023-02-14T15:58:20.442Z,10.37
2023-02-14T16:01:06.766Z,10.34
2023-02-14T16:03:58.577Z,10.27
2023-02-14T16:06:46.807Z,10.21
2023-02-14T16:09:37.594Z,10.16
2023-02-14T16:12:32.165Z,10.04
2023-02-14T16:15:21.451Z,9.98
2023-02-14T16:18:37.682Z,9.91
2023-02-14T16:21:28.221Z,9.84
2023-02-14T16:24:13.654Z,9.77
2023-02-14T16:26:58.724Z,9.67
2023-02-14T16:29:43.762Z,9.53
2023-02-14T16:32:30.164Z,9.42
2023-02-14T16:35:19.904Z,9.35
2023-02-14T16:38:05.121Z,9.24
2023-02-14T16:40:54.145Z,9.12
2023-02-14T16:43:38.998Z,9.06
2023-02-14T16:46:28.976Z,8.94
2023-02-14T16:49:14.192Z,8.93
2023-02-14T16:51:59.401Z,8.77
2023-02-14T16:54:44.366Z,8.77
2023-02-14T16:57:33.672Z,8.70
2023-02-14T17:00:19.323Z,8.55
2023-02-14T17:03:06.182Z,8.47
2023-02-14T17:05:51.337Z,8.30
2023-02-14T17:08:38.886Z,8.19
2023-02-14T17:11:25.165Z,8.09
2023-02-14T17:14:14.200Z,8.03
2023-02-14T17:16:59.601Z,7.98
2023-02-14T17:19:44.513Z,7.88
2023-02-14T17:22:29.702Z,7.77
2023-02-14T17:25:14.539Z,7.65
2023-02-14T17:28:00.933Z,7.57
2023-02-14T17:30:47.404Z,7.41
2023-02-14T17:33:33.239Z,7.32
2023-02-14T17:36:18.153Z,7.26
2023-02-14T17:39:05.441Z,7.18
2023-02-14T17:41:50.491Z,7.11
2023-02-14T17:44:37.337Z,7.07
2023-02-14T17:47:22.534Z,7.00
2023-02-14T17:50:08.027Z,6.93
2023-02-14T17:52:56.531Z,6.86
2023-02-14T17:55:41.636Z,6.77
2023-02-14T17:58:26.777Z,6.68
2023-02-14T18:01:12.644Z,6.58
2023-02-14T18:03:57.621Z,6.52
2023-02-14T18:06:43.039Z,6.43
2023-02-14T18:09:28.201Z,6.31
2023-02-14T18:12:15.055Z,6.24
2023-02-14T18:15:00.499Z,6.11
2023-02-14T18:17:49.993Z,6.02
2023-02-14T18:20:35.287Z,5.99
2023-02-14T18:23:21.075Z,5.94
2023-02-14T18:26:10.022Z,5.94
2023-02-14T18:28:54.910Z,5.79
2023-02-14T18:31:42.186Z,5.78
2023-02-14T18:34:28.008Z,5.67
2023-02-14T18:37:13.818Z,5.68
2023-02-14T18:39:58.708Z,5.63
2023-02-14T18:42:43.435Z,5.48
2023-02-14T18:45:28.726Z,5.54
2023-02-14T18:48:13.565Z,5.41
2023-02-14T18:51:29.696Z,5.34
2023-02-14T18:54:14.707Z,5.33
2023-02-14T18:56:59.674Z,5.30
2023-02-14T18:59:45.010Z,5.18
2023-02-14T19:02:30.416Z,5.11
2023-02-14T19:05:15.159Z,5.05
2023-02-14T19:08:00.569Z,5.01
2023-02-14T19:10:45.583Z,4.93
2023-02-14T19:13:32.101Z,4.88
2023-02-14T19:16:20.197Z,4.81
2023-02-14T19:19:05.568Z,4.69
2023-02-14T19:21:50.804Z,4.72
2023-02-14T19:24:36.167Z,4.63
2023-02-14T19:27:22.319Z,4.61
2023-02-14T19:30:07.716Z,4.55
2023-02-14T19:32:52.866Z,4.46
2023-02-14T19:35:38.040Z,4.40
2023-02-14T19:38:23.364Z,4.41
2023-02-14T19:41:16.554Z,4.44
2023-02-14T19:44:04.518Z,4.38
2023-02-14T19:46:49.903Z,4.29
2023-02-14T19:49:35.565Z,4.23
2023-02-14T19:52:27.712Z,4.10
2023-02-14T19:55:21.595Z,4.08
2023-02-14T19:58:06.806Z,4.02
2023-02-14T20:00:59.052Z,3.96
2023-02-14T20:03:44.737Z,3.95
2023-02-14T20:06:29.752Z,3.86
2023-02-14T20:09:16.024Z,3.92
2023-02-14T20:12:01.509Z,3.90
2023-02-14T20:14:51.457Z,3.85
2023-02-14T20:17:36.664Z,3.81
2023-02-14T20:20:21.652Z,3.76
2023-02-14T20:23:06.843Z,3.68
2023-02-14T20:25:51.973Z,3.59
2023-02-14T20:28:36.847Z,3.58
2023-02-14T20:31:21.879Z,3.57
2023-02-14T20:34:07.296Z,3.60
2023-02-14T20:36:55.973Z,3.61
2023-02-14T20:39:41.369Z,3.49
2023-02-14T20:42:26.670Z,3.46
2023-02-14T20:45:11.517Z,3.51
2023-02-14T20:47:56.636Z,3.43
2023-02-14T20:50:41.606Z,3.31
2023-02-14T20:53:27.185Z,3.30
2023-02-14T20:56:13.550Z,3.26
2023-02-14T20:59:01.949Z,3.19
2023-02-14T21:01:46.974Z,3.23
2023-02-14T21:04:32.179Z,3.21
2023-02-14T21:07:17.457Z,3.26
2023-02-14T21:10:02.699Z,3.24
2023-02-14T21:12:48.373Z,3.24
2023-02-14T21:15:33.462Z,3.17
2023-02-14T21:18:18.352Z,3.23
2023-02-14T21:21:12.028Z,3.03
2023-02-14T21:23:57.098Z,2.92
2023-02-14T21:26:43.055Z,2.89
2023-02-14T21:29:27.850Z,2.89
2023-02-14T21:32:13.171Z,2.83
2023-02-14T21:34:58.285Z,2.90
2023-02-14T21:37:43.378Z,2.95
2023-02-14T21:40:28.281Z,2.87
2023-02-14T21:43:13.189Z,2.91
2023-02-14T21:46:02.004Z,2.84
2023-02-14T21:49:05.754Z,2.67
2023-02-14T21:51:50.851Z,2.70
2023-02-14T21:54:35.740Z,2.67
2023-02-14T21:57:20.560Z,2.66
2023-02-14T22:00:06.507Z,2.61
2023-02-14T22:02:52.505Z,2.63
2023-02-14T22:05:37.149Z,2.53
2023-02-14T22:08:22.054Z,2.54
2023-02-14T22:11:12.687Z,2.52
2023-02-14T22:13:57.528Z,2.48
2023-02-14T22:16:42.493Z,2.50
2023-02-14T22:19:28.021Z,2.53
2023-02-14T22:22:12.937Z,2.42
2023-02-14T22:24:58.022Z,2.39
2023-02-14T22:27:42.956Z,2.39
2023-02-14T22:30:28.205Z,2.30
2023-02-14T22:33:13.128Z,2.33
2023-02-14T22:35:59.804Z,2.30
2023-02-14T22:38:45.078Z,2.24
2023-02-14T22:41:30.249Z,2.24
2023-02-14T22:44:15.126Z,2.28
2023-02-14T22:47:01.286Z,2.29
2023-02-14T22:49:46.373Z,2.25
2023-02-14T22:52:31.418Z,2.26
2023-02-14T22:55:16.232Z,2.17
2023-02-14T22:58:01.341Z,2.18
2023-02-14T23:00:46.217Z,2.14
2023-02-14T23:03:31.608Z,2.16
2023-02-14T23:06:16.741Z,2.19
2023-02-14T23:09:03.553Z,2.15
2023-02-14T23:11:49.062Z,2.11
2023-02-14T23:14:52.568Z,2.08
2023-02-14T23:17:56.359Z,2.06
2023-02-14T23:21:00.284Z,1.98
2023-02-14T23:23:45.390Z,1.98
2023-02-14T23:26:30.318Z,1.94
2023-02-14T23:29:15.438Z,1.97
2023-02-14T23:32:00.296Z,1.89
2023-02-14T23:34:45.746Z,1.97
2023-02-14T23:37:30.769Z,1.91
2023-02-14T23:40:16.070Z,1.88
2023-02-14T23:43:01.084Z,1.90
2023-02-14T23:45:45.922Z,1.94
2023-02-14T23:48:31.005Z,1.75
2023-02-14T23:51:15.667Z,1.80
2023-02-14T23:54:01.457Z,1.79
2023-02-14T23:56:46.218Z,1.63
2023-02-14T23:59:31.743Z,1.68
